createdAt,value
2023-04-12T00:01:14.006Z,1.17
2023-04-12T00:03:41.736Z,1.15
2023-04-12T00:06:10.488Z,1.08
2023-04-12T00:08:38.878Z,1.15
2023-04-12T00:11:06.702Z,2.45
2023-04-12T00:13:36.218Z,1.45
2023-04-12T00:16:04.347Z,1.55
2023-04-12T00:18:31.833Z,1.42
2023-04-12T00:20:59.386Z,2.30
2023-04-12T00:23:26.864Z,1.13
2023-04-12T00:25:54.164Z,1.77
2023-04-12T00:28:21.504Z,1.92
2023-04-12T00:30:50.843Z,1.35
2023-04-12T00:33:18.264Z,1.25
2023-04-12T00:35:45.621Z,1.73
2023-04-12T00:38:17.358Z,1.30
2023-04-12T00:40:45.102Z,2.25
2023-04-12T00:43:15.735Z,1.88
2023-04-12T00:45:44.680Z,2.00
2023-04-12T00:48:12.870Z,1.92
2023-04-12T00:50:41.893Z,1.42
2023-04-12T00:53:13.613Z,1.35
2023-04-12T00:55:44.126Z,1.25
2023-04-12T00:58:12.148Z,1.15
2023-04-12T01:00:40.475Z,1.40
2023-04-12T01:03:12.303Z,2.05
2023-04-12T01:05:50.511Z,2.13
2023-04-12T01:08:27.175Z,2.92
2023-04-12T01:10:59.186Z,1.95
2023-04-12T01:13:36.175Z,2.70
2023-04-12T01:16:11.097Z,2.45
2023-04-12T01:18:41.783Z,3.30
2023-04-12T01:21:17.095Z,3.00
2023-04-12T01:24:03.012Z,3.75
2023-04-12T01:26:47.884Z,2.78
2023-04-12T01:31:58.221Z,1.75
2023-04-12T01:34:29.301Z,2.42
2023-04-12T01:36:59.038Z,2.20
2023-04-12T01:39:27.595Z,2.55
2023-04-12T01:41:55.120Z,2.92
2023-04-12T01:44:23.145Z,3.40
2023-04-12T01:46:51.912Z,3.30
2023-04-12T01:49:19.777Z,2.17
2023-04-12T01:52:02.359Z,2.00
2023-04-12T01:54:33.357Z,1.80
2023-04-12T01:57:04.424Z,1.70
2023-04-12T01:59:42.027Z,1.80
2023-04-12T02:02:12.380Z,2.17
2023-04-12T02:04:41.799Z,2.55
2023-04-12T02:07:09.801Z,2.15
2023-04-12T02:09:40.582Z,1.85
2023-04-12T02:12:09.211Z,1.70
2023-04-12T02:14:37.126Z,2.65
2023-04-12T02:17:05.621Z,2.20
2023-04-12T02:19:33.760Z,2.17
2023-04-12T02:22:02.447Z,2.45
2023-04-12T02:24:30.181Z,1.85
2023-04-12T02:26:59.210Z,2.22
2023-04-12T02:29:27.603Z,1.73
2023-04-12T02:31:55.248Z,1.98
2023-04-12T02:34:25.653Z,2.17
2023-04-12T02:37:04.306Z,1.90
2023-04-12T02:39:32.379Z,2.60
2023-04-12T02:42:02.057Z,2.05
2023-04-12T02:44:31.376Z,2.60
2023-04-12T02:47:10.740Z,1.73
2023-04-12T02:49:39.087Z,1.88
2023-04-12T02:52:07.235Z,2.20
2023-04-12T02:54:42.229Z,1.88
2023-04-12T02:57:16.377Z,1.70
2023-04-12T02:59:46.793Z,2.63
2023-04-12T03:02:26.684Z,3.03
2023-04-12T03:04:59.505Z,2.13
2023-04-12T03:07:36.617Z,2.83
2023-04-12T03:10:07.293Z,2.13
2023-04-12T03:12:39.108Z,2.35
2023-04-12T03:15:18.424Z,3.35
2023-04-12T03:17:49.430Z,2.13
2023-04-12T03:20:20.587Z,2.78
2023-04-12T03:23:02.013Z,3.05
2023-04-12T03:25:31.882Z,2.92
2023-04-12T03:28:10.781Z,3.22
2023-04-12T03:30:49.817Z,2.15
2023-04-12T03:33:19.848Z,2.35
2023-04-12T03:35:48.978Z,2.30
2023-04-12T03:38:16.708Z,1.42
2023-04-12T03:40:44.777Z,1.27
2023-04-12T03:43:12.408Z,1.58
2023-04-12T03:45:39.863Z,2.25
2023-04-12T03:48:08.235Z,1.77
2023-04-12T03:50:44.601Z,2.83
2023-04-12T03:53:19.539Z,2.05
2023-04-12T03:55:48.090Z,1.80
2023-04-12T03:58:16.605Z,2.38
2023-04-12T04:00:46.888Z,2.00
2023-04-12T04:03:15.370Z,1.48
2023-04-12T04:05:54.283Z,1.20
2023-04-12T04:08:21.996Z,1.50
2023-04-12T04:10:52.319Z,1.02
2023-04-12T04:13:22.900Z,1.35
2023-04-12T04:16:04.646Z,1.05
2023-04-12T04:18:33.301Z,1.00
2023-04-12T04:21:01.534Z,0.80
2023-04-12T04:23:38.631Z,1.27
2023-04-12T04:26:10.785Z,2.05
2023-04-12T04:28:46.813Z,1.00
2023-04-12T04:31:18.700Z,1.77
2023-04-12T04:33:50.968Z,1.15
2023-04-12T04:36:22.481Z,1.20
2023-04-12T04:38:54.391Z,1.00
2023-04-12T04:41:41.662Z,2.03
2023-04-12T04:44:19.566Z,1.20
2023-04-12T04:46:53.812Z,1.52
2023-04-12T04:49:22.112Z,1.55
2023-04-12T04:51:49.656Z,1.20
2023-04-12T04:54:18.138Z,1.80
2023-04-12T04:56:46.056Z,0.75
2023-04-12T04:59:17.887Z,1.83
2023-04-12T05:01:45.456Z,0.70
2023-04-12T05:04:16.196Z,1.15
2023-04-12T05:06:43.669Z,0.95
2023-04-12T05:09:13.097Z,0.85
2023-04-12T05:11:47.697Z,0.80
2023-04-12T05:14:15.122Z,0.93
2023-04-12T05:16:42.786Z,1.73
2023-04-12T05:19:10.292Z,0.90
2023-04-12T05:21:37.849Z,1.00
2023-04-12T05:24:05.938Z,2.15
2023-04-12T05:26:36.246Z,1.10
2023-04-12T05:29:08.634Z,1.15
2023-04-12T05:31:36.242Z,0.50
2023-04-12T05:34:07.352Z,0.68
2023-04-12T05:36:40.569Z,1.17
2023-04-12T05:39:08.588Z,0.60
2023-04-12T05:41:36.909Z,0.90
2023-04-12T05:44:04.550Z,0.88
2023-04-12T05:46:33.230Z,0.80
2023-04-12T05:49:01.654Z,1.05
2023-04-12T05:51:40.449Z,2.00
2023-04-12T05:54:13.140Z,0.73
2023-04-12T05:56:40.758Z,1.88
2023-04-12T05:59:09.298Z,1.50
2023-04-12T06:01:36.776Z,0.70
2023-04-12T06:04:06.209Z,0.82
2023-04-12T06:06:34.111Z,1.95
2023-04-12T06:09:03.006Z,1.20
2023-04-12T06:11:30.657Z,1.23
2023-04-12T06:13:58.602Z,1.15
2023-04-12T06:16:26.143Z,1.55
2023-04-12T06:18:53.798Z,1.05
2023-04-12T06:21:21.966Z,0.75
2023-04-12T06:23:49.471Z,1.02
2023-04-12T06:26:18.819Z,0.77
2023-04-12T06:28:47.004Z,1.10
2023-04-12T06:31:17.222Z,1.05
2023-04-12T06:33:44.941Z,1.23
2023-04-12T06:36:12.905Z,1.65
2023-04-12T06:38:40.680Z,0.82
2023-04-12T06:41:08.170Z,0.95
2023-04-12T06:43:36.161Z,1.25
2023-04-12T06:46:03.696Z,1.50
2023-04-12T06:48:31.018Z,1.00
2023-04-12T06:50:58.804Z,1.30
2023-04-12T06:53:26.366Z,1.02
2023-04-12T06:55:54.226Z,0.95
2023-04-12T06:58:21.699Z,1.50
2023-04-12T07:00:49.227Z,0.93
2023-04-12T07:03:16.713Z,1.38
2023-04-12T07:05:45.368Z,1.55
2023-04-12T07:08:12.777Z,1.33
2023-04-12T07:10:40.237Z,1.30
2023-04-12T07:13:08.352Z,1.23
2023-04-12T07:15:35.874Z,1.25
2023-04-12T07:18:03.438Z,1.52
2023-04-12T07:20:30.995Z,1.20
2023-04-12T07:22:58.453Z,1.38
2023-04-12T07:25:26.177Z,1.35
2023-04-12T07:27:54.041Z,1.55
2023-04-12T07:30:21.684Z,0.80
2023-04-12T07:32:50.098Z,1.33
2023-04-12T07:35:17.891Z,1.33
2023-04-12T07:37:45.640Z,1.45
2023-04-12T07:40:13.029Z,1.50
2023-04-12T07:42:40.700Z,0.90
2023-04-12T07:45:08.683Z,1.40
2023-04-12T07:47:36.276Z,2.78
2023-04-12T07:50:04.313Z,2.17
2023-04-12T07:52:32.885Z,1.77
2023-04-12T07:55:00.757Z,1.55
2023-04-12T07:57:28.403Z,2.53
2023-04-12T07:59:57.228Z,0.70
2023-04-12T08:02:25.937Z,0.90
2023-04-12T08:04:57.043Z,1.20
2023-04-12T08:07:24.555Z,0.88
2023-04-12T08:09:52.315Z,1.00
2023-04-12T08:12:21.337Z,1.27
2023-04-12T08:14:48.763Z,1.23
2023-04-12T08:17:16.939Z,0.80
2023-04-12T08:19:44.283Z,1.05
2023-04-12T08:22:13.626Z,0.80
2023-04-12T08:24:41.562Z,0.95
2023-04-12T08:27:09.100Z,1.38
2023-04-12T08:29:36.486Z,1.55
2023-04-12T08:32:05.278Z,1.08
2023-04-12T08:34:33.279Z,0.80
2023-04-12T08:37:01.141Z,0.98
2023-04-12T08:39:28.457Z,1.00
2023-04-12T08:41:57.172Z,0.80
2023-04-12T08:44:40.137Z,0.85
2023-04-12T08:47:09.553Z,0.90
2023-04-12T08:49:37.069Z,1.30
2023-04-12T08:52:09.626Z,0.80
2023-04-12T08:54:37.690Z,0.90
2023-04-12T08:57:09.215Z,1.38
2023-04-12T08:59:43.866Z,1.02
2023-04-12T09:02:14.055Z,1.02
2023-04-12T09:04:52.782Z,0.70
2023-04-12T09:07:23.519Z,0.73
2023-04-12T09:09:51.356Z,0.63
2023-04-12T09:12:20.923Z,0.40
2023-04-12T09:14:48.457Z,0.30
2023-04-12T09:17:27.885Z,0.40
2023-04-12T09:19:56.809Z,0.50
2023-04-12T09:22:40.038Z,0.60
2023-04-12T09:25:07.949Z,0.52
2023-04-12T09:27:52.809Z,0.30
2023-04-12T09:30:20.896Z,0.30
2023-04-12T09:32:55.406Z,0.40
2023-04-12T09:35:35.746Z,0.30
2023-04-12T09:38:10.979Z,0.40
2023-04-12T09:40:38.696Z,0.30
2023-04-12T09:43:07.193Z,0.20
2023-04-12T09:45:41.291Z,0.40
2023-04-12T09:48:19.599Z,0.40
2023-04-12T09:50:47.111Z,0.40
2023-04-12T09:53:18.644Z,0.55
2023-04-12T09:55:48.503Z,0.40
2023-04-12T09:58:19.505Z,0.32
2023-04-12T10:00:47.880Z,0.40
2023-04-12T10:03:15.631Z,0.40
2023-04-12T10:05:43.083Z,0.40
2023-04-12T10:08:13.118Z,0.30
2023-04-12T10:10:40.772Z,0.47
2023-04-12T10:13:11.539Z,0.63
2023-04-12T10:15:40.599Z,0.50
2023-04-12T10:18:11.927Z,0.55
2023-04-12T10:20:44.026Z,0.60
2023-04-12T10:23:19.592Z,0.40
2023-04-12T10:25:48.680Z,0.63
2023-04-12T10:28:17.604Z,0.40
2023-04-12T10:30:46.081Z,0.40
2023-04-12T10:33:15.007Z,0.70
2023-04-12T10:36:08.813Z,0.70
2023-04-12T10:38:47.397Z,0.52
2023-04-12T10:41:22.373Z,0.50
2023-04-12T10:43:51.637Z,0.90
2023-04-12T10:46:39.138Z,0.50
2023-04-12T10:49:14.593Z,0.50
2023-04-12T10:52:04.414Z,0.70
2023-04-12T10:54:35.981Z,0.52
2023-04-12T10:57:04.755Z,0.73
2023-04-12T10:59:52.679Z,0.60
2023-04-12T11:02:20.662Z,0.50
2023-04-12T11:05:10.386Z,0.70
2023-04-12T11:08:00.199Z,0.70
2023-04-12T11:10:40.300Z,0.80
2023-04-12T11:13:10.128Z,0.93
2023-04-12T11:15:40.377Z,0.73
2023-04-12T11:18:13.899Z,0.73
2023-04-12T11:20:41.958Z,0.93
2023-04-12T11:23:11.576Z,0.60
2023-04-12T11:25:39.487Z,0.93
2023-04-12T11:28:17.533Z,0.70
2023-04-12T11:30:54.248Z,0.90
2023-04-12T11:33:40.408Z,1.67
2023-04-12T11:36:13.239Z,1.00
2023-04-12T11:38:41.289Z,0.63
2023-04-12T11:41:09.868Z,0.70
2023-04-12T11:43:40.527Z,0.63
2023-04-12T11:46:08.261Z,0.80
2023-04-12T11:48:38.844Z,0.60
2023-04-12T11:51:20.213Z,0.60
2023-04-12T11:53:52.289Z,0.80
2023-04-12T11:56:19.689Z,1.13
2023-04-12T11:58:50.384Z,1.17
2023-04-12T12:01:22.236Z,0.70
2023-04-12T12:03:51.037Z,0.70
2023-04-12T12:06:20.750Z,1.25
2023-04-12T12:08:51.549Z,0.77
2023-04-12T12:11:24.212Z,1.50
2023-04-12T12:13:56.213Z,1.00
2023-04-12T12:16:29.165Z,1.17
2023-04-12T12:18:57.604Z,1.10
2023-04-12T12:21:27.433Z,1.20
2023-04-12T12:23:58.846Z,1.10
2023-04-12T12:26:30.953Z,1.02
2023-04-12T12:29:00.554Z,1.00
2023-04-12T12:31:28.797Z,0.98
2023-04-12T12:34:01.478Z,0.68
2023-04-12T12:36:36.154Z,0.67
2023-04-12T12:39:10.679Z,1.02
2023-04-12T12:41:39.042Z,1.67
2023-04-12T12:44:08.154Z,0.80
2023-04-12T12:49:06.443Z,1.63
2023-04-12T12:51:33.902Z,1.80
2023-04-12T12:54:01.426Z,1.52
2023-04-12T12:56:28.802Z,1.67
2023-04-12T12:58:56.285Z,2.15
2023-04-12T13:01:23.943Z,2.00
2023-04-12T13:03:51.904Z,2.13
2023-04-12T13:06:19.632Z,1.65
2023-04-12T13:08:47.112Z,2.15
2023-04-12T13:11:16.430Z,1.90
2023-04-12T13:13:44.351Z,1.35
2023-04-12T13:16:11.717Z,1.70
2023-04-12T13:18:39.359Z,1.95
2023-04-12T13:21:08.021Z,1.33
2023-04-12T13:23:35.906Z,1.95
2023-04-12T13:26:03.211Z,1.80
2023-04-12T13:28:30.643Z,1.95
2023-04-12T13:30:58.053Z,2.35
2023-04-12T13:33:25.488Z,2.05
2023-04-12T13:35:52.800Z,2.05
2023-04-12T13:38:20.394Z,1.95
2023-04-12T13:40:47.991Z,1.30
2023-04-12T13:43:18.434Z,0.98
2023-04-12T13:45:45.913Z,1.00
2023-04-12T13:48:13.463Z,0.93
2023-04-12T13:50:41.032Z,0.98
2023-04-12T13:53:08.361Z,1.20
2023-04-12T13:55:35.659Z,1.00
2023-04-12T13:58:03.108Z,0.90
2023-04-12T14:00:30.593Z,1.23
2023-04-12T14:02:58.022Z,2.22
2023-04-12T14:05:25.674Z,1.42
2023-04-12T14:07:53.371Z,0.82
2023-04-12T14:10:20.863Z,0.90
2023-04-12T14:12:48.225Z,1.10
2023-04-12T14:15:16.631Z,1.00
2023-04-12T14:17:44.382Z,0.95
2023-04-12T14:20:12.792Z,0.60
2023-04-12T14:22:40.218Z,0.50
2023-04-12T14:25:08.364Z,0.80
2023-04-12T14:27:36.178Z,0.88
2023-04-12T14:30:05.097Z,1.70
2023-04-12T14:32:32.583Z,0.98
2023-04-12T14:35:00.096Z,2.15
2023-04-12T14:37:27.574Z,1.73
2023-04-12T14:39:55.015Z,0.70
2023-04-12T14:42:22.680Z,1.13
2023-04-12T14:44:50.159Z,0.70
2023-04-12T14:47:17.754Z,0.73
2023-04-12T14:49:45.191Z,1.23
2023-04-12T14:52:12.804Z,0.88
2023-04-12T14:54:40.128Z,0.93
2023-04-12T14:57:07.487Z,3.28
2023-04-12T14:59:35.092Z,1.67
2023-04-12T15:02:02.880Z,0.93
2023-04-12T15:04:30.489Z,0.70
2023-04-12T15:06:58.244Z,0.60
2023-04-12T15:09:26.206Z,0.70
2023-04-12T15:12:01.323Z,0.60
2023-04-12T15:14:30.456Z,0.68
2023-04-12T15:16:58.088Z,0.80
2023-04-12T15:19:25.632Z,0.95
2023-04-12T15:21:55.569Z,0.93
2023-04-12T15:24:24.235Z,1.02
2023-04-12T15:26:53.235Z,0.68
2023-04-12T15:29:22.929Z,0.70
2023-04-12T15:31:51.004Z,0.75
2023-04-12T15:34:18.650Z,0.50
2023-04-12T15:36:46.456Z,0.85
2023-04-12T15:39:15.212Z,0.40
2023-04-12T15:41:43.736Z,0.40
2023-04-12T15:44:14.947Z,0.35
2023-04-12T15:46:43.150Z,0.20
2023-04-12T15:49:11.617Z,0.30
2023-04-12T15:51:39.248Z,0.30
2023-04-12T15:54:06.947Z,0.20
2023-04-12T15:56:35.588Z,0.20
2023-04-12T15:59:03.295Z,0.13
2023-04-12T16:01:30.936Z,0.10
2023-04-12T16:03:58.776Z,0.20
2023-04-12T16:06:26.618Z,0.20
2023-04-12T16:08:55.154Z,0.10
2023-04-12T16:11:23.959Z,0.20
2023-04-12T16:13:52.529Z,0.30
2023-04-12T16:16:22.710Z,0.10
2023-04-12T16:18:50.465Z,0.20
2023-04-12T16:21:23.776Z,0.10
2023-04-12T16:23:51.576Z,0.20
2023-04-12T16:26:24.174Z,0.20
2023-04-12T16:28:53.526Z,0.10
2023-04-12T16:31:21.486Z,0.20
2023-04-12T16:33:50.032Z,0.10
2023-04-12T16:36:17.438Z,0.10
2023-04-12T16:38:45.706Z,0.30
2023-04-12T16:41:13.118Z,0.20
2023-04-12T16:43:42.065Z,0.20
2023-04-12T16:46:11.383Z,0.40
2023-04-12T16:48:41.161Z,0.32
2023-04-12T16:51:08.953Z,0.60
2023-04-12T16:53:37.200Z,0.35
2023-04-12T16:56:04.749Z,0.30
2023-04-12T16:58:33.284Z,2.25
2023-04-12T17:01:01.039Z,0.60
2023-04-12T17:03:29.035Z,0.68
2023-04-12T17:05:56.625Z,0.95
2023-04-12T17:08:23.922Z,1.23
2023-04-12T17:10:51.312Z,0.80
2023-04-12T17:13:20.317Z,0.88
2023-04-12T17:15:48.474Z,0.88
2023-04-12T17:18:16.297Z,0.60
2023-04-12T17:20:44.303Z,2.33
2023-04-12T17:23:12.507Z,6.10
2023-04-12T17:25:40.505Z,4.57
2023-04-12T17:28:08.660Z,2.72
2023-04-12T17:30:36.300Z,4.78
2023-04-12T17:33:04.038Z,0.60
2023-04-12T17:35:31.438Z,0.52
2023-04-12T17:37:59.203Z,0.70
2023-04-12T17:40:27.183Z,0.80
2023-04-12T17:42:54.489Z,0.80
2023-04-12T17:45:23.757Z,0.57
2023-04-12T17:47:51.632Z,0.73
2023-04-12T17:50:19.054Z,0.35
2023-04-12T17:52:47.137Z,0.60
2023-04-12T17:55:14.732Z,0.50
2023-04-12T17:57:44.459Z,0.90
2023-04-12T18:00:12.300Z,0.40
2023-04-12T18:02:46.894Z,0.70
2023-04-12T18:05:14.461Z,1.77
2023-04-12T18:07:42.645Z,0.63
2023-04-12T18:10:12.759Z,0.68
2023-04-12T18:12:41.055Z,1.20
2023-04-12T18:15:09.279Z,0.73
2023-04-12T18:17:37.090Z,0.70
2023-04-12T18:20:09.876Z,0.55
2023-04-12T18:22:38.751Z,0.98
2023-04-12T18:25:07.730Z,0.60
2023-04-12T18:27:35.226Z,0.80
2023-04-12T18:30:03.634Z,0.70
2023-04-12T18:32:31.413Z,0.63
2023-04-12T18:34:59.105Z,0.70
2023-04-12T18:37:27.373Z,0.68
2023-04-12T18:39:55.637Z,0.60
2023-04-12T18:42:23.299Z,0.50
2023-04-12T18:44:51.585Z,0.63
2023-04-12T18:47:19.348Z,0.50
2023-04-12T18:49:47.151Z,0.57
2023-04-12T18:52:14.718Z,1.52
2023-04-12T18:54:42.090Z,0.70
2023-04-12T18:57:09.485Z,0.88
2023-04-12T18:59:37.177Z,0.82
2023-04-12T19:02:04.633Z,1.83
2023-04-12T19:04:32.395Z,1.00
2023-04-12T19:06:59.939Z,0.65
2023-04-12T19:09:27.897Z,0.68
2023-04-12T19:11:57.167Z,0.75
2023-04-12T19:14:25.532Z,0.68
2023-04-12T19:16:53.409Z,0.70
2023-04-12T19:19:21.118Z,0.63
2023-04-12T19:21:48.944Z,0.52
2023-04-12T19:24:16.702Z,0.43
2023-04-12T19:26:47.364Z,0.40
2023-04-12T19:29:16.124Z,0.60
2023-04-12T19:31:45.854Z,0.47
2023-04-12T19:34:17.713Z,0.60
2023-04-12T19:36:45.914Z,0.55
2023-04-12T19:39:13.729Z,0.50
2023-04-12T19:41:41.680Z,0.40
2023-04-12T19:44:09.387Z,0.60
2023-04-12T19:46:39.028Z,0.50
2023-04-12T19:49:06.750Z,0.43
2023-04-12T19:51:34.830Z,0.57
2023-04-12T19:54:03.976Z,0.55
2023-04-12T19:56:31.795Z,0.50
2023-04-12T19:59:00.424Z,0.50
2023-04-12T20:01:28.523Z,0.40
2023-04-12T20:03:56.408Z,0.40
2023-04-12T20:06:23.956Z,0.40
2023-04-12T20:08:51.794Z,0.32
2023-04-12T20:11:20.811Z,0.93
2023-04-12T20:13:48.196Z,0.30
2023-04-12T20:16:16.471Z,0.30
2023-04-12T20:18:44.156Z,0.20
2023-04-12T20:21:12.612Z,0.22
2023-04-12T20:23:41.043Z,0.30
2023-04-12T20:26:09.410Z,0.40
2023-04-12T20:28:38.039Z,0.30
2023-04-12T20:31:06.346Z,0.30
2023-04-12T20:33:33.995Z,0.30
2023-04-12T20:36:01.957Z,0.30
2023-04-12T20:38:32.525Z,0.50
2023-04-12T20:41:00.101Z,0.20
2023-04-12T20:43:29.464Z,0.40
2023-04-12T20:45:58.274Z,0.30
2023-04-12T20:48:26.463Z,0.47
2023-04-12T20:50:56.350Z,0.30
2023-04-12T20:53:24.709Z,0.30
2023-04-12T20:55:55.084Z,0.20
2023-04-12T20:58:23.977Z,0.30
2023-04-12T21:00:51.524Z,0.20
2023-04-12T21:03:19.174Z,0.30
2023-04-12T21:05:50.577Z,0.30
2023-04-12T21:08:18.645Z,0.20
2023-04-12T21:10:48.489Z,0.20
2023-04-12T21:13:16.563Z,0.20
2023-04-12T21:15:44.060Z,0.20
2023-04-12T21:18:11.444Z,0.30
2023-04-12T21:20:38.795Z,0.38
2023-04-12T21:23:07.477Z,0.25
2023-04-12T21:25:35.237Z,0.28
2023-04-12T21:28:03.587Z,0.20
2023-04-12T21:30:33.421Z,0.22
2023-04-12T21:33:02.332Z,0.40
2023-04-12T21:35:30.415Z,0.30
2023-04-12T21:37:57.839Z,0.47
2023-04-12T21:40:25.359Z,0.20
2023-04-12T21:42:53.644Z,0.30
2023-04-12T21:45:21.407Z,0.40
2023-04-12T21:47:49.266Z,0.75
2023-04-12T21:50:17.257Z,0.20
2023-04-12T21:52:45.652Z,0.13
2023-04-12T21:55:13.328Z,0.28
2023-04-12T21:57:41.043Z,0.10
2023-04-12T22:00:10.304Z,0.20
2023-04-12T22:02:44.767Z,0.10
2023-04-12T22:05:12.803Z,0.30
2023-04-12T22:07:41.686Z,0.20
2023-04-12T22:10:10.472Z,0.20
2023-04-12T22:12:39.300Z,0.10
2023-04-12T22:15:11.965Z,0.20
2023-04-12T22:17:40.868Z,0.20
2023-04-12T22:20:09.693Z,0.10
2023-04-12T22:22:37.671Z,0.25
2023-04-12T22:25:08.647Z,0.10
2023-04-12T22:27:36.380Z,0.20
2023-04-12T22:30:03.982Z,0.10
2023-04-12T22:32:33.741Z,0.10
2023-04-12T22:35:08.147Z,0.10
2023-04-12T22:37:43.813Z,0.10
2023-04-12T22:40:12.492Z,0.20
2023-04-12T22:42:47.730Z,0.10
2023-04-12T22:45:17.092Z,0.15
2023-04-12T22:47:45.662Z,0.10
2023-04-12T22:50:13.497Z,0.10
2023-04-12T22:52:42.109Z,0.05
2023-04-12T22:55:19.911Z,0.10
2023-04-12T22:57:47.836Z,0.10
2023-04-12T23:00:17.262Z,0.10
2023-04-12T23:02:46.799Z,0.15
2023-04-12T23:05:14.600Z,0.20
2023-04-12T23:07:43.665Z,0.10
2023-04-12T23:10:12.512Z,0.38
2023-04-12T23:12:40.099Z,0.20
2023-04-12T23:15:09.059Z,0.13
2023-04-12T23:17:36.971Z,0.10
2023-04-12T23:20:10.060Z,0.10
2023-04-12T23:22:56.842Z,0.10
2023-04-12T23:25:38.142Z,0.10
2023-04-12T23:28:13.390Z,0.13
2023-04-12T23:30:47.995Z,0.15
2023-04-12T23:33:20.523Z,0.20
2023-04-12T23:35:58.852Z,0.20
2023-04-12T23:38:32.433Z,0.50
2023-04-12T23:41:02.460Z,0.20
2023-04-12T23:43:32.565Z,0.17
2023-04-12T23:46:00.903Z,0.20
2023-04-12T23:48:28.968Z,0.20
2023-04-12T23:50:56.467Z,0.20
2023-04-12T23:53:24.480Z,0.10
2023-04-12T23:55:53.614Z,0.20
2023-04-12T23:58:21.876Z,0.30
